Time,TemperatureF,DewpointF,PressureIn,WindDirection,WindDirectionDegrees,WindSpeedMPH,WindSpeedGustMPH,Humidity,HourlyPrecipIn,Conditions,Clouds,dailyrainin,SoftwareType,DateUTC
2013-12-21 00:22:00,51.3,46.9,30.09,ESE,107,0.0,0.0,85,0.00,,,0.00,WUHU216DAVISVP2,2013-12-21 05:22:00,
2013-12-21 00:27:00,51.4,47.0,30.09,ESE,107,0.0,0.0,85,0.00,,,0.00,WUHU216DAVISVP2,2013-12-21 05:27:00,
2013-12-21 00:32:00,51.4,47.0,30.09,ESE,107,0.0,0.0,85,0.00,,,0.00,WUHU216DAVISVP2,2013-12-21 05:32:00,
2013-12-21 00:38:00,52.0,47.6,30.10,ESE,107,0.0,0.0,85,0.00,,,0.00,WUHU216DAVISVP2,2013-12-21 05:38:00,
2013-12-21 00:44:00,52.0,47.6,30.10,ESE,107,0.0,0.0,85,0.00,,,0.00,WUHU216DAVISVP2,2013-12-21 05:44:00,
2013-12-21 00:50:00,52.0,47.6,30.10,ESE,107,0.0,0.0,85,0.00,,,0.00,WUHU216DAVISVP2,2013-12-21 05:50:00,
2013-12-21 00:55:00,52.0,47.6,30.10,ESE,107,0.0,0.0,85,0.00,,,0.00,WUHU216DAVISVP2,2013-12-21 05:55:00,
2013-12-21 01:00:00,52.0,47.6,30.10,ESE,107,0.0,0.0,85,0.00,,,0.00,WUHU216DAVISVP2,2013-12-21 06:00:00,
2013-12-21 01:05:00,52.0,47.6,30.09,ESE,107,0.0,0.0,85,0.00,,,0.00,WUHU216DAVISVP2,2013-12-21 06:05:00,
2013-12-21 01:10:00,52.0,47.6,30.09,ESE,107,0.0,0.0,85,0.00,,,0.00,WUHU216DAVISVP2,2013-12-21 06:10:00,
2013-12-21 01:15:00,52.9,48.5,30.09,ESE,107,0.0,0.0,85,0.00,,,0.00,WUHU216DAVISVP2,2013-12-21 06:15:00,
2013-12-21 01:20:00,52.9,48.5,30.09,ESE,107,0.0,0.0,85,0.00,,,0.00,WUHU216DAVISVP2,2013-12-21 06:20:00,
2013-12-21 01:25:00,52.8,48.4,30.09,ESE,107,0.0,0.0,85,0.00,,,0.00,WUHU216DAVISVP2,2013-12-21 06:25:00,
2013-12-21 01:30:00,52.8,48.4,30.09,SE,128,0.0,0.0,85,0.00,,,0.00,WUHU216DAVISVP2,2013-12-21 06:30:00,
2013-12-21 01:33:00,52.8,48.4,30.09,SE,128,0.0,0.0,85,0.00,,,0.00,WUHU216DAVISVP2,2013-12-21 06:33:00,
2013-12-21 01:38:00,52.9,48.5,30.09,SE,128,0.0,0.0,85,0.00,,,0.00,WUHU216DAVISVP2,2013-12-21 06:38:00,
2013-12-21 01:43:00,52.9,48.8,30.09,SE,128,0.0,0.0,86,0.00,,,0.00,WUHU216DAVISVP2,2013-12-21 06:43:00,
2013-12-21 01:48:00,52.9,48.8,30.09,SE,128,0.0,0.0,86,0.00,,,0.00,WUHU216DAVISVP2,2013-12-21 06:48:00,
2013-12-21 01:53:00,52.5,48.4,30.09,SE,128,0.0,0.0,86,0.00,,,0.00,WUHU216DAVISVP2,2013-12-21 06:53:00,
2013-12-21 01:59:00,52.2,48.1,30.09,SE,128,0.0,0.0,86,0.00,,,0.00,WUHU216DAVISVP2,2013-12-21 06:59:00,
2013-12-21 02:04:00,52.0,47.9,30.09,SE,128,0.0,0.0,86,0.00,,,0.00,WUHU216DAVISVP2,2013-12-21 07:04:00,
2013-12-21 02:09:00,52.0,47.9,30.09,SE,128,0.0,0.0,86,0.00,,,0.00,WUHU216DAVISVP2,2013-12-21 07:09:00,
2013-12-21 02:14:00,52.0,47.9,30.09,SE,128,0.0,0.0,86,0.00,,,0.00,WUHU216DAVISVP2,2013-12-21 07:14:00,
2013-12-21 04:58:00,52.6,49.1,30.07,East,99,0.0,0.0,88,0.00,,,0.00,WUHU216DAVISVP2,2013-12-21 09:58:00,
2013-12-21 05:03:00,52.6,49.1,30.08,ESE,102,0.0,0.0,88,0.00,,,0.00,WUHU216DAVISVP2,2013-12-21 10:03:00,
2013-12-21 05:09:00,52.3,48.8,30.08,ESE,102,0.0,0.0,88,0.00,,,0.00,WUHU216DAVISVP2,2013-12-21 10:09:00,
2013-12-21 05:14:00,52.2,48.7,30.08,ESE,102,0.0,0.0,88,0.00,,,0.00,WUHU216DAVISVP2,2013-12-21 10:14:00,
2013-12-21 05:19:00,52.2,48.7,30.08,ESE,102,0.0,0.0,88,0.00,,,0.00,WUHU216DAVISVP2,2013-12-21 10:19:00,
2013-12-21 05:24:00,52.2,48.7,30.08,ESE,102,0.0,0.0,88,0.00,,,0.00,WUHU216DAVISVP2,2013-12-21 10:24:00,
2013-12-21 05:29:00,52.2,48.7,30.08,ESE,102,0.0,0.0,88,0.00,,,0.00,WUHU216DAVISVP2,2013-12-21 10:29:00,
2013-12-21 05:34:00,52.2,48.7,30.09,ESE,102,0.0,0.0,88,0.00,,,0.00,WUHU216DAVISVP2,2013-12-21 10:34:00,
2013-12-21 05:39:00,52.2,48.7,30.09,ESE,102,0.0,0.0,88,0.00,,,0.00,WUHU216DAVISVP2,2013-12-21 10:39:00,
2013-12-21 05:44:00,52.2,48.7,30.09,ESE,102,0.0,0.0,88,0.00,,,0.00,WUHU216DAVISVP2,2013-12-21 10:44:00,
2013-12-21 05:49:00,51.9,48.4,30.09,ESE,102,0.0,0.0,88,0.00,,,0.00,WUHU216DAVISVP2,2013-12-21 10:49:00,
2013-12-21 05:54:00,51.9,48.4,30.09,ESE,102,0.0,0.0,88,0.00,,,0.00,WUHU216DAVISVP2,2013-12-21 10:54:00,
2013-12-21 05:59:00,51.9,48.4,30.09,ESE,102,0.0,0.0,88,0.00,,,0.00,WUHU216DAVISVP2,2013-12-21 10:59:00,
2013-12-21 06:04:00,51.9,48.4,30.09,ESE,102,0.0,0.0,88,0.00,,,0.00,WUHU216DAVISVP2,2013-12-21 11:04:00,
2013-12-21 06:09:00,51.9,48.4,30.09,ESE,102,0.0,0.0,88,0.00,,,0.00,WUHU216DAVISVP2,2013-12-21 11:09:00,
2013-12-21 06:47:00,52.8,49.6,30.10,ESE,102,0.0,0.0,89,0.00,,,0.00,WUHU216DAVISVP2,2013-12-21 11:47:00,
2013-12-21 06:52:00,52.5,49.3,30.10,ESE,102,0.0,0.0,89,0.00,,,0.00,WUHU216DAVISVP2,2013-12-21 11:52:00,
2013-12-21 06:57:00,52.5,49.3,30.10,ESE,102,0.0,0.0,89,0.00,,,0.00,WUHU216DAVISVP2,2013-12-21 11:57:00,
2013-12-21 07:02:00,52.5,49.3,30.10,ESE,102,0.0,0.0,89,0.00,,,0.00,WUHU216DAVISVP2,2013-12-21 12:02:00,
2013-12-21 07:07:00,52.5,49.3,30.11,ESE,102,0.0,0.0,89,0.00,,,0.00,WUHU216DAVISVP2,2013-12-21 12:07:00,
2013-12-21 07:12:00,52.5,49.3,30.11,ESE,102,0.0,0.0,89,0.00,,,0.00,WUHU216DAVISVP2,2013-12-21 12:12:00,
2013-12-21 07:17:00,52.5,49.3,30.11,ESE,102,0.0,0.0,89,0.00,,,0.00,WUHU216DAVISVP2,2013-12-21 12:17:00,
2013-12-21 07:22:00,52.2,49.0,30.10,ESE,102,0.0,0.0,89,0.00,,,0.00,WUHU216DAVISVP2,2013-12-21 12:22:00,
2013-12-21 07:27:00,52.3,49.4,30.10,ESE,102,0.0,0.0,90,0.00,,,0.00,WUHU216DAVISVP2,2013-12-21 12:27:00,
2013-12-21 07:32:00,52.3,49.4,30.10,ESE,102,0.0,0.0,90,0.00,,,0.00,WUHU216DAVISVP2,2013-12-21 12:32:00,
2013-12-21 07:37:00,52.2,49.3,30.11,ESE,102,0.0,0.0,90,0.00,,,0.00,WUHU216DAVISVP2,2013-12-21 12:37:00,
2013-12-21 07:42:00,52.2,49.3,30.11,ESE,102,0.0,0.0,90,0.00,,,0.00,WUHU216DAVISVP2,2013-12-21 12:42:00,
2013-12-21 07:47:00,52.2,49.3,30.11,ESE,102,0.0,0.0,90,0.00,,,0.00,WUHU216DAVISVP2,2013-12-21 12:47:00,
2013-12-21 07:52:00,52.2,49.3,30.10,ESE,102,0.0,0.0,90,0.00,,,0.00,WUHU216DAVISVP2,2013-12-21 12:52:00,
2013-12-21 08:18:00,54.4,51.5,30.10,ESE,102,0.0,0.0,90,0.00,,,0.00,WUHU216DAVISVP2,2013-12-21 13:18:00,
2013-12-21 08:23:00,53.9,51.0,30.10,ESE,102,0.0,0.0,90,0.00,,,0.00,WUHU216DAVISVP2,2013-12-21 13:23:00,
2013-12-21 08:29:00,54.4,51.5,30.10,ESE,102,0.0,0.0,90,0.00,,,0.00,WUHU216DAVISVP2,2013-12-21 13:29:00,
2013-12-21 08:34:00,54.8,51.9,30.10,East,90,0.0,0.0,90,0.00,,,0.00,WUHU216DAVISVP2,2013-12-21 13:34:00,
2013-12-21 08:39:00,55.6,52.7,30.10,East,90,0.0,0.0,90,0.00,,,0.00,WUHU216DAVISVP2,2013-12-21 13:39:00,
2013-12-21 08:44:00,56.5,53.6,30.10,East,90,0.0,0.0,90,0.00,,,0.00,WUHU216DAVISVP2,2013-12-21 13:44:00,
2013-12-21 08:49:00,56.6,53.7,30.11,SSE,155,0.0,0.0,90,0.00,,,0.00,WUHU216DAVISVP2,2013-12-21 13:49:00,
2013-12-21 08:54:00,56.7,54.1,30.11,SSE,155,0.0,0.0,91,0.00,,,0.00,WUHU216DAVISVP2,2013-12-21 13:54:00,
2013-12-21 08:59:00,57.3,54.7,30.11,SSE,154,0.0,0.0,91,0.00,,,0.00,WUHU216DAVISVP2,2013-12-21 13:59:00,
2013-12-21 09:04:00,58.4,55.7,30.11,East,95,0.0,0.0,91,0.00,,,0.00,WUHU216DAVISVP2,2013-12-21 14:04:00,
2013-12-21 09:09:00,58.4,55.7,30.11,SE,133,0.0,0.0,91,0.00,,,0.00,WUHU216DAVISVP2,2013-12-21 14:09:00,
2013-12-21 09:14:00,58.4,55.7,30.11,SE,133,0.0,0.0,91,0.00,,,0.00,WUHU216DAVISVP2,2013-12-21 14:14:00,
2013-12-21 09:19:00,58.4,55.4,30.12,SE,140,0.0,0.0,90,0.00,,,0.00,WUHU216DAVISVP2,2013-12-21 14:19:00,
2013-12-21 09:24:00,58.4,55.4,30.12,WSW,257,0.0,0.0,90,0.00,,,0.00,WUHU216DAVISVP2,2013-12-21 14:24:00,
2013-12-21 09:29:00,58.4,55.4,30.12,WSW,257,0.0,0.0,90,0.00,,,0.00,WUHU216DAVISVP2,2013-12-21 14:29:00,
2013-12-21 09:34:00,58.4,55.4,30.12,WSW,257,0.0,0.0,90,0.00,,,0.00,WUHU216DAVISVP2,2013-12-21 14:34:00,
2013-12-21 11:18:00,62.9,56.7,30.10,East,95,0.0,0.0,80,0.00,,,0.00,WUHU216DAVISVP2,2013-12-21 16:18:00,
2013-12-21 11:23:00,62.9,56.7,30.09,East,95,0.0,0.0,80,0.00,,,0.00,WUHU216DAVISVP2,2013-12-21 16:23:00,
2013-12-21 11:29:00,62.9,56.7,30.09,ESE,114,0.0,0.0,80,0.00,,,0.00,WUHU216DAVISVP2,2013-12-21 16:29:00,
2013-12-21 11:34:00,62.9,56.4,30.09,ESE,114,0.0,0.0,79,0.00,,,0.00,WUHU216DAVISVP2,2013-12-21 16:34:00,
2013-12-21 11:39:00,63.5,56.6,30.09,SE,124,0.0,0.0,78,0.00,,,0.00,WUHU216DAVISVP2,2013-12-21 16:39:00,
2013-12-21 11:44:00,63.5,56.6,30.09,SE,126,0.0,0.0,78,0.00,,,0.00,WUHU216DAVISVP2,2013-12-21 16:44:00,
2013-12-21 11:49:00,64.0,57.1,30.08,SSW,203,0.0,0.0,78,0.00,,,0.00,WUHU216DAVISVP2,2013-12-21 16:49:00,
2013-12-21 11:54:00,64.0,57.1,30.08,SSW,203,0.0,0.0,78,0.00,,,0.00,WUHU216DAVISVP2,2013-12-21 16:54:00,
2013-12-21 11:59:00,64.0,57.1,30.08,NNE,32,0.0,0.0,78,0.00,,,0.00,WUHU216DAVISVP2,2013-12-21 16:59:00,
2013-12-21 12:04:00,65.6,58.6,30.08,ESE,120,0.0,0.0,78,0.00,,,0.00,WUHU216DAVISVP2,2013-12-21 17:04:00,
2013-12-21 12:09:00,66.0,58.3,30.08,WSW,240,0.0,0.0,76,0.00,,,0.00,WUHU216DAVISVP2,2013-12-21 17:09:00,
2013-12-21 12:14:00,66.3,58.6,30.08,WSW,239,0.0,0.0,76,0.00,,,0.00,WUHU216DAVISVP2,2013-12-21 17:14:00,
2013-12-21 12:19:00,66.6,58.9,30.06,ENE,73,0.0,0.0,76,0.00,,,0.00,WUHU216DAVISVP2,2013-12-21 17:19:00,
2013-12-21 12:24:00,66.8,59.1,30.06,SW,232,0.0,0.0,76,0.00,,,0.00,WUHU216DAVISVP2,2013-12-21 17:24:00,
2013-12-21 12:29:00,67.9,60.2,30.06,North,1,0.0,0.0,76,0.00,,,0.00,WUHU216DAVISVP2,2013-12-21 17:29:00,
2013-12-21 12:34:00,67.9,60.2,30.05,NW,326,0.0,0.0,76,0.00,,,0.00,WUHU216DAVISVP2,2013-12-21 17:34:00,
2013-12-21 12:39:00,67.9,60.2,30.05,SSE,151,0.0,0.0,76,0.00,,,0.00,WUHU216DAVISVP2,2013-12-21 17:39:00,
2013-12-21 12:44:00,67.9,60.2,30.05,SSE,151,0.0,0.0,76,0.00,,,0.00,WUHU216DAVISVP2,2013-12-21 17:44:00,
2013-12-21 12:49:00,67.9,60.2,30.05,SSE,151,0.0,0.0,76,0.00,,,0.00,WUHU216DAVISVP2,2013-12-21 17:49:00,
2013-12-21 12:54:00,67.9,60.2,30.05,SW,236,0.0,0.0,76,0.00,,,0.00,WUHU216DAVISVP2,2013-12-21 17:54:00,
2013-12-21 12:59:00,70.6,62.8,30.05,South,186,0.0,0.0,76,0.00,,,0.00,WUHU216DAVISVP2,2013-12-21 17:59:00,
2013-12-21 13:04:00,70.6,62.8,30.04,South,186,0.0,0.0,76,0.00,,,0.00,WUHU216DAVISVP2,2013-12-21 18:04:00,
2013-12-21 13:09:00,70.6,62.8,30.04,ENE,72,0.0,0.0,76,0.00,,,0.00,WUHU216DAVISVP2,2013-12-21 18:09:00,
2013-12-21 13:14:00,70.6,62.8,30.04,SSW,196,0.0,0.0,76,0.00,,,0.00,WUHU216DAVISVP2,2013-12-21 18:14:00,
2013-12-21 13:19:00,70.9,63.1,30.04,ESE,104,0.0,0.0,76,0.00,,,0.00,WUHU216DAVISVP2,2013-12-21 18:19:00,
2013-12-21 13:24:00,71.3,63.5,30.04,East,83,0.0,0.0,76,0.00,,,0.00,WUHU216DAVISVP2,2013-12-21 18:24:00,
2013-12-21 13:29:00,71.5,63.7,30.04,ESE,110,0.0,0.0,76,0.00,,,0.00,WUHU216DAVISVP2,2013-12-21 18:29:00,
2013-12-21 13:34:00,71.5,63.7,30.03,ESE,109,0.0,0.0,76,0.00,,,0.00,WUHU216DAVISVP2,2013-12-21 18:34:00,
2013-12-21 13:39:00,71.5,60.2,30.03,NE,54,0.0,0.0,67,0.00,,,0.00,WUHU216DAVISVP2,2013-12-21 18:39:00,
2013-12-21 13:44:00,71.8,60.4,30.03,SW,215,0.0,0.0,67,0.00,,,0.00,WUHU216DAVISVP2,2013-12-21 18:44:00,
2013-12-21 13:49:00,71.8,60.4,30.03,East,88,0.0,0.0,67,0.00,,,0.00,WUHU216DAVISVP2,2013-12-21 18:49:00,
2013-12-21 13:54:00,71.8,60.4,30.03,East,88,0.0,0.0,67,0.00,,,0.00,WUHU216DAVISVP2,2013-12-21 18:54:00,
2013-12-21 13:59:00,72.7,61.3,30.03,SSE,165,0.0,0.0,67,0.00,,,0.00,WUHU216DAVISVP2,2013-12-21 18:59:00,
2013-12-21 14:04:00,72.7,60.9,30.01,SSE,155,0.0,0.0,66,0.00,,,0.00,WUHU216DAVISVP2,2013-12-21 19:04:00,
2013-12-21 14:09:00,73.3,61.5,30.01,West,278,0.0,0.0,66,0.00,,,0.00,WUHU216DAVISVP2,2013-12-21 19:09:00,
2013-12-21 14:14:00,73.3,61.5,30.01,West,278,0.0,0.0,66,0.00,,,0.00,WUHU216DAVISVP2,2013-12-21 19:14:00,
2013-12-21 14:19:00,73.5,61.2,29.99,East,89,0.0,0.0,65,0.00,,,0.00,WUHU216DAVISVP2,2013-12-21 19:19:00,
2013-12-21 14:24:00,73.3,61.0,29.99,NNE,16,0.0,0.0,65,0.00,,,0.00,WUHU216DAVISVP2,2013-12-21 19:24:00,
2013-12-21 14:29:00,73.3,61.0,29.99,NNE,21,0.0,0.0,65,0.00,,,0.00,WUHU216DAVISVP2,2013-12-21 19:29:00,
2013-12-21 14:34:00,73.3,61.0,30.00,NNE,21,0.0,0.0,65,0.00,,,0.00,WUHU216DAVISVP2,2013-12-21 19:34:00,
2013-12-21 14:39:00,72.5,60.3,30.00,SSW,196,0.0,0.0,65,0.00,,,0.00,WUHU216DAVISVP2,2013-12-21 19:39:00,
2013-12-21 14:44:00,72.5,60.3,30.00,East,100,0.0,0.0,65,0.00,,,0.00,WUHU216DAVISVP2,2013-12-21 19:44:00,
2013-12-21 14:49:00,72.5,60.3,29.99,SE,126,0.0,0.0,65,0.00,,,0.00,WUHU216DAVISVP2,2013-12-21 19:49:00,
2013-12-21 14:54:00,72.5,60.3,29.99,SE,126,0.0,0.0,65,0.00,,,0.00,WUHU216DAVISVP2,2013-12-21 19:54:00,
2013-12-21 14:59:00,72.5,60.1,29.99,SW,234,0.0,0.0,65,0.00,,,0.00,WUHU216DAVISVP2,2013-12-21 19:59:00,
2013-12-21 15:04:00,72.5,60.1,30.01,SSE,161,0.0,0.0,65,0.00,,,0.00,WUHU216DAVISVP2,2013-12-21 20:04:00,
2013-12-21 15:09:00,73.0,60.5,30.01,ESE,110,0.0,0.0,65,0.00,,,0.00,WUHU216DAVISVP2,2013-12-21 20:09:00,
2013-12-21 15:14:00,72.5,60.1,30.01,SSE,147,0.0,0.0,65,0.00,,,0.00,WUHU216DAVISVP2,2013-12-21 20:14:00,
2013-12-21 15:19:00,72.3,59.9,30.01,SE,144,0.0,0.0,65,0.00,,,0.00,WUHU216DAVISVP2,2013-12-21 20:19:00,
2013-12-21 15:24:00,72.3,59.9,30.01,SW,226,0.0,0.0,65,0.00,,,0.00,WUHU216DAVISVP2,2013-12-21 20:24:00,
2013-12-21 15:29:00,72.0,59.8,30.01,ESE,119,0.0,0.0,65,0.00,,,0.00,WUHU216DAVISVP2,2013-12-21 20:29:00,
2013-12-21 15:34:00,72.0,60.6,30.00,ESE,116,0.0,0.0,67,0.00,,,0.00,WUHU216DAVISVP2,2013-12-21 20:34:00,
2013-12-21 15:39:00,71.8,60.4,30.00,ESE,107,0.0,0.0,67,0.00,,,0.00,WUHU216DAVISVP2,2013-12-21 20:39:00,
2013-12-21 15:44:00,71.8,60.4,30.00,ESE,106,0.0,0.0,67,0.00,,,0.00,WUHU216DAVISVP2,2013-12-21 20:44:00,
2013-12-21 15:49:00,71.8,60.4,30.00,SSW,209,0.0,0.0,67,0.00,,,0.00,WUHU216DAVISVP2,2013-12-21 20:49:00,
2013-12-21 15:54:00,71.8,60.4,30.00,SW,234,0.0,0.0,67,0.00,,,0.00,WUHU216DAVISVP2,2013-12-21 20:54:00,
2013-12-21 15:59:00,71.8,60.4,30.00,SE,126,0.0,0.0,67,0.00,,,0.00,WUHU216DAVISVP2,2013-12-21 20:59:00,
2013-12-21 16:04:00,71.8,60.4,29.99,NE,41,0.0,0.0,67,0.00,,,0.00,WUHU216DAVISVP2,2013-12-21 21:04:00,
2013-12-21 16:09:00,71.1,59.8,29.99,East,92,0.0,0.0,67,0.00,,,0.00,WUHU216DAVISVP2,2013-12-21 21:09:00,
2013-12-21 16:14:00,71.1,59.8,29.99,ESE,117,0.0,0.0,67,0.00,,,0.00,WUHU216DAVISVP2,2013-12-21 21:14:00,
2013-12-21 16:19:00,70.6,59.3,30.00,East,85,0.0,0.0,67,0.00,,,0.00,WUHU216DAVISVP2,2013-12-21 21:19:00,
2013-12-21 16:24:00,70.6,59.3,30.00,West,277,0.0,0.0,67,0.00,,,0.00,WUHU216DAVISVP2,2013-12-21 21:24:00,
2013-12-21 16:29:00,69.9,58.4,30.00,West,267,0.0,0.0,67,0.00,,,0.00,WUHU216DAVISVP2,2013-12-21 21:29:00,
2013-12-21 16:34:00,69.6,59.4,30.00,West,267,0.0,0.0,70,0.00,,,0.00,WUHU216DAVISVP2,2013-12-21 21:34:00,
2013-12-21 16:39:00,69.6,59.4,30.00,East,96,0.0,0.0,70,0.00,,,0.00,WUHU216DAVISVP2,2013-12-21 21:39:00,
2013-12-21 16:44:00,68.9,58.7,30.00,WNW,285,0.0,0.0,70,0.00,,,0.00,WUHU216DAVISVP2,2013-12-21 21:44:00,
2013-12-21 16:49:00,68.9,58.7,30.01,WNW,285,0.0,0.0,70,0.00,,,0.00,WUHU216DAVISVP2,2013-12-21 21:49:00,
2013-12-21 16:54:00,68.4,59.0,30.01,SW,222,0.0,0.0,72,0.00,,,0.00,WUHU216DAVISVP2,2013-12-21 21:54:00,
2013-12-21 16:59:00,68.4,59.0,30.01,SW,222,0.0,0.0,72,0.00,,,0.00,WUHU216DAVISVP2,2013-12-21 21:59:00,
2013-12-21 17:04:00,68.4,59.4,30.01,SW,222,0.0,0.0,73,0.00,,,0.00,WUHU216DAVISVP2,2013-12-21 22:04:00,
2013-12-21 17:09:00,68.4,59.6,30.01,SW,222,0.0,0.0,73,0.00,,,0.00,WUHU216DAVISVP2,2013-12-21 22:09:00,
2013-12-21 17:14:00,68.4,59.6,30.01,SW,222,0.0,0.0,73,0.00,,,0.00,WUHU216DAVISVP2,2013-12-21 22:14:00,
2013-12-21 18:29:00,65.8,59.5,30.02,SSW,192,0.0,0.0,80,0.00,,,0.00,WUHU216DAVISVP2,2013-12-21 23:29:00,
2013-12-21 18:34:00,65.8,59.5,30.02,SSW,192,0.0,0.0,80,0.00,,,0.00,WUHU216DAVISVP2,2013-12-21 23:34:00,
2013-12-21 18:39:00,65.6,59.3,30.02,SSW,192,0.0,0.0,80,0.00,,,0.00,WUHU216DAVISVP2,2013-12-21 23:39:00,
2013-12-21 18:44:00,65.6,59.3,30.02,SSE,167,0.0,0.0,80,0.00,,,0.00,WUHU216DAVISVP2,2013-12-21 23:44:00,
2013-12-21 18:49:00,65.5,59.2,30.02,SSE,167,0.0,0.0,80,0.00,,,0.00,WUHU216DAVISVP2,2013-12-21 23:49:00,
2013-12-21 18:54:00,65.5,59.6,30.02,SSE,167,0.0,0.0,81,0.00,,,0.00,WUHU216DAVISVP2,2013-12-21 23:54:00,
2013-12-21 18:59:00,65.5,59.6,30.02,SE,144,0.0,0.0,81,0.00,,,0.00,WUHU216DAVISVP2,2013-12-21 23:59:00,
2013-12-21 19:04:00,65.2,59.3,30.02,SE,144,0.0,0.0,81,0.00,,,0.00,WUHU216DAVISVP2,2013-12-22 00:04:00,
2013-12-21 19:09:00,65.2,59.3,30.02,NW,320,0.0,0.0,81,0.00,,,0.00,WUHU216DAVISVP2,2013-12-22 00:09:00,
2013-12-21 19:14:00,65.2,59.3,30.02,NW,320,0.0,0.0,81,0.00,,,0.00,WUHU216DAVISVP2,2013-12-22 00:14:00,
2013-12-21 19:19:00,65.2,59.3,30.02,NW,320,0.0,0.0,81,0.00,,,0.00,WUHU216DAVISVP2,2013-12-22 00:19:00,
2013-12-21 20:28:00,67.8,62.8,30.02,SE,127,0.0,0.0,84,0.00,,,0.00,WUHU216DAVISVP2,2013-12-22 01:28:00,
2013-12-21 20:33:00,67.8,62.8,30.02,SE,134,0.0,0.0,84,0.00,,,0.00,WUHU216DAVISVP2,2013-12-22 01:33:00,
2013-12-21 20:38:00,67.9,62.9,30.03,NW,311,0.0,0.0,84,0.00,,,0.00,WUHU216DAVISVP2,2013-12-22 01:38:00,
2013-12-21 20:43:00,67.9,62.9,30.03,East,92,0.0,0.0,84,0.00,,,0.00,WUHU216DAVISVP2,2013-12-22 01:43:00,
2013-12-21 20:48:00,67.9,62.9,30.03,East,92,0.0,0.0,84,0.00,,,0.00,WUHU216DAVISVP2,2013-12-22 01:48:00,
2013-12-21 20:53:00,67.9,62.9,30.02,SSW,199,0.0,0.0,84,0.00,,,0.00,WUHU216DAVISVP2,2013-12-22 01:53:00,
2013-12-21 20:58:00,67.8,62.8,30.02,East,80,0.0,0.0,84,0.00,,,0.00,WUHU216DAVISVP2,2013-12-22 01:58:00,
2013-12-21 21:03:00,68.1,63.1,30.01,ESE,113,0.0,0.0,84,0.00,,,0.00,WUHU216DAVISVP2,2013-12-22 02:03:00,
2013-12-21 21:08:00,68.1,63.1,30.01,SSE,148,0.0,0.0,84,0.00,,,0.00,WUHU216DAVISVP2,2013-12-22 02:08:00,
2013-12-21 21:13:00,68.1,63.1,30.01,SE,143,0.0,0.0,84,0.00,,,0.00,WUHU216DAVISVP2,2013-12-22 02:13:00,
2013-12-21 21:18:00,68.1,63.1,30.01,SSW,196,0.0,0.0,84,0.00,,,0.00,WUHU216DAVISVP2,2013-12-22 02:18:00,
2013-12-21 21:23:00,68.1,63.1,30.01,SSW,196,0.0,0.0,84,0.00,,,0.00,WUHU216DAVISVP2,2013-12-22 02:23:00,
2013-12-21 21:28:00,68.1,63.1,30.01,ESE,119,0.0,0.0,84,0.00,,,0.00,WUHU216DAVISVP2,2013-12-22 02:28:00,
2013-12-21 21:33:00,68.6,63.6,30.01,SSE,158,0.0,0.0,84,0.00,,,0.00,WUHU216DAVISVP2,2013-12-22 02:33:00,
2013-12-21 21:38:00,68.6,63.6,30.01,WSW,253,0.0,0.0,84,0.00,,,0.00,WUHU216DAVISVP2,2013-12-22 02:38:00,
2013-12-21 21:43:00,68.6,63.6,30.01,WSW,253,0.0,0.0,84,0.00,,,0.00,WUHU216DAVISVP2,2013-12-22 02:43:00,
2013-12-21 21:48:00,68.9,63.9,30.01,ESE,112,0.0,0.0,84,0.00,,,0.00,WUHU216DAVISVP2,2013-12-22 02:48:00,
2013-12-21 21:53:00,68.9,63.9,30.01,SW,216,0.0,0.0,84,0.00,,,0.00,WUHU216DAVISVP2,2013-12-22 02:53:00,
2013-12-21 21:58:00,68.9,63.9,30.01,SE,138,0.0,0.0,84,0.00,,,0.00,WUHU216DAVISVP2,2013-12-22 02:58:00,
2013-12-21 22:03:00,68.9,63.9,30.01,SE,140,0.0,0.0,84,0.00,,,0.00,WUHU216DAVISVP2,2013-12-22 03:03:00,
2013-12-21 22:08:00,68.9,63.9,30.00,South,189,0.0,0.0,84,0.00,,,0.00,WUHU216DAVISVP2,2013-12-22 03:08:00,
2013-12-21 22:13:00,68.9,63.9,30.00,South,189,0.0,0.0,84,0.00,,,0.00,WUHU216DAVISVP2,2013-12-22 03:13:00,
2013-12-21 22:18:00,68.9,63.9,30.01,SSW,202,0.0,0.0,84,0.00,,,0.00,WUHU216DAVISVP2,2013-12-22 03:18:00,
2013-12-21 22:23:00,68.9,63.9,30.01,ESE,112,0.0,0.0,84,0.00,,,0.00,WUHU216DAVISVP2,2013-12-22 03:23:00,
2013-12-21 22:28:00,68.9,63.9,30.01,SE,145,0.0,0.0,84,0.00,,,0.00,WUHU216DAVISVP2,2013-12-22 03:28:00,
2013-12-21 22:33:00,69.4,64.4,30.00,SSE,161,0.0,0.0,84,0.00,,,0.00,WUHU216DAVISVP2,2013-12-22 03:33:00,
2013-12-21 22:38:00,69.4,64.4,30.00,SSE,154,0.0,0.0,84,0.00,,,0.00,WUHU216DAVISVP2,2013-12-22 03:38:00,
2013-12-21 22:43:00,69.6,64.6,30.00,SE,143,0.0,0.0,84,0.00,,,0.00,WUHU216DAVISVP2,2013-12-22 03:43:00,
2013-12-21 22:48:00,69.6,64.6,30.00,South,189,0.0,0.0,84,0.00,,,0.00,WUHU216DAVISVP2,2013-12-22 03:48:00,
2013-12-21 22:53:00,69.6,64.6,30.00,WSW,246,0.0,0.0,84,0.00,,,0.00,WUHU216DAVISVP2,2013-12-22 03:53:00,
2013-12-21 22:58:00,69.6,64.6,30.00,SW,232,0.0,0.0,84,0.00,,,0.00,WUHU216DAVISVP2,2013-12-22 03:58:00,
2013-12-21 23:03:00,69.8,64.7,30.00,SW,229,0.0,0.0,84,0.00,,,0.00,WUHU216DAVISVP2,2013-12-22 04:03:00,
2013-12-21 23:08:00,69.9,64.8,30.00,SE,131,0.0,0.0,84,0.00,,,0.00,WUHU216DAVISVP2,2013-12-22 04:08:00,
2013-12-21 23:13:00,69.9,65.5,30.00,WSW,244,0.0,0.0,86,0.00,,,0.00,WUHU216DAVISVP2,2013-12-22 04:13:00,
2013-12-21 23:18:00,69.9,65.5,30.01,SSW,202,0.0,0.0,86,0.00,,,0.00,WUHU216DAVISVP2,2013-12-22 04:18:00,
2013-12-21 23:23:00,69.9,65.5,30.01,SSW,202,0.0,0.0,86,0.00,,,0.00,WUHU216DAVISVP2,2013-12-22 04:23:00,
2013-12-21 23:58:00,70.3,65.6,30.00,ESE,106,0.0,0.0,85,0.00,,,0.00,WUHU216DAVISVP2,2013-12-22 04:58:00,